createdAt,value
2022-09-11T00:07:12.985Z,0.50
2022-09-11T01:05:49.111Z,0.60
2022-09-11T01:08:22.747Z,0.93
2022-09-11T01:16:10.946Z,0.50
2022-09-11T01:19:02.779Z,0.70
2022-09-11T01:22:21.325Z,0.60
2022-09-11T01:25:48.498Z,0.70
2022-09-11T01:28:47.194Z,0.57
2022-09-11T01:33:14.791Z,0.63
2022-09-11T01:36:23.235Z,0.70
2022-09-11T02:43:57.125Z,0.40
2022-09-11T02:47:30.752Z,0.83
2022-09-11T02:51:45.814Z,0.50
2022-09-11T02:55:41.483Z,0.40
2022-09-11T02:58:47.770Z,0.50
2022-09-11T03:01:23.226Z,0.50
2022-09-11T03:03:52.758Z,0.50
2022-09-11T03:06:36.273Z,0.30
2022-09-11T03:09:17.927Z,0.40
2022-09-11T03:16:20.539Z,0.77
2022-09-11T03:18:59.525Z,0.57
2022-09-11T03:21:30.052Z,0.63
2022-09-11T03:24:05.374Z,0.60
2022-09-11T03:26:39.301Z,0.50
2022-09-11T03:29:10.904Z,0.70
2022-09-11T03:31:39.597Z,0.97
2022-09-11T03:34:13.545Z,0.70
2022-09-11T03:36:42.235Z,0.60
2022-09-11T04:09:32.133Z,1.23
2022-09-11T04:12:13.645Z,1.27
2022-09-11T04:14:42.181Z,1.53
2022-09-11T04:17:55.177Z,1.30
2022-09-11T04:21:22.444Z,1.43
2022-09-11T04:24:35.358Z,2.20
2022-09-11T05:25:04.090Z,3.77
2022-09-11T05:27:42.895Z,5.30
2022-09-11T05:30:17.111Z,5.50
2022-09-11T05:33:28.802Z,4.80
2022-09-11T05:37:12.939Z,5.07
2022-09-11T05:48:27.422Z,3.83
2022-09-11T05:51:48.737Z,5.83
2022-09-11T05:54:44.347Z,6.30
2022-09-11T06:05:41.505Z,8.67
2022-09-11T06:08:55.868Z,9.67
2022-09-11T06:11:50.496Z,9.90
2022-09-11T06:14:32.109Z,9.80
2022-09-11T06:17:06.498Z,10.30
2022-09-11T06:19:48.107Z,9.00
2022-09-11T06:22:26.711Z,7.87
2022-09-11T06:25:17.461Z,10.80
2022-09-11T06:28:01.880Z,10.93
2022-09-11T06:30:36.752Z,10.23
2022-09-11T06:33:06.923Z,10.33
2022-09-11T06:35:41.148Z,9.10
2022-09-11T06:38:11.513Z,10.60
2022-09-11T06:40:42.884Z,9.50
2022-09-11T06:43:45.245Z,13.97
2022-09-11T06:46:31.630Z,12.33
2022-09-11T06:50:47.102Z,13.10
2022-09-11T06:52:36.072Z,13.67
2022-09-11T06:55:43.398Z,12.67
2022-09-11T06:58:42.654Z,11.43
2022-09-11T07:01:18.254Z,13.77
2022-09-11T07:04:34.963Z,11.80
2022-09-11T07:07:05.604Z,12.33
2022-09-11T07:09:45.594Z,12.00
2022-09-11T07:12:18.065Z,13.43
2022-09-11T07:14:56.508Z,13.00
2022-09-11T07:17:47.615Z,11.30
2022-09-11T07:20:31.196Z,12.90
2022-09-11T07:23:08.829Z,11.60
2022-09-11T07:25:47.048Z,12.87
2022-09-11T07:28:26.792Z,10.50
2022-09-11T07:31:27.595Z,11.40
2022-09-11T07:34:08.624Z,11.20
2022-09-11T07:36:54.886Z,11.00
2022-09-11T07:39:31.583Z,10.37
2022-09-11T07:42:11.350Z,13.43
2022-09-11T07:44:50.676Z,16.80
2022-09-11T07:47:28.127Z,17.20
2022-09-11T07:50:01.361Z,15.17
2022-09-11T07:52:46.550Z,16.30
2022-09-11T07:55:33.377Z,16.50
2022-09-11T07:58:13.767Z,16.50
2022-09-11T08:01:02.392Z,13.90
2022-09-11T08:06:56.735Z,9.70
2022-09-11T08:09:30.155Z,8.47
2022-09-11T08:12:04.262Z,9.20
2022-09-11T08:14:34.028Z,6.67
2022-09-11T08:17:09.580Z,6.60
2022-09-11T08:19:39.230Z,6.30
2022-09-11T08:22:08.811Z,4.73
2022-09-11T08:24:42.875Z,4.90
2022-09-11T08:27:13.055Z,4.83
2022-09-11T08:29:43.153Z,4.53
2022-09-11T08:32:13.606Z,3.67
2022-09-11T08:34:42.190Z,2.53
2022-09-11T08:37:11.497Z,3.47
2022-09-11T08:39:39.792Z,3.47
2022-09-11T08:42:14.193Z,2.17
2022-09-11T08:44:48.561Z,2.40
2022-09-11T08:47:37.094Z,1.97
2022-09-11T08:50:10.360Z,2.53
2022-09-11T08:52:45.815Z,3.27
2022-09-11T08:55:21.094Z,3.20
2022-09-11T08:57:55.013Z,5.07
2022-09-11T09:00:33.942Z,8.00
2022-09-11T09:03:30.197Z,8.07
2022-09-11T09:06:18.021Z,9.50
2022-09-11T09:08:54.134Z,10.10
2022-09-11T09:11:32.713Z,10.23
2022-09-11T09:14:19.276Z,13.83
2022-09-11T09:16:52.114Z,12.20
2022-09-11T09:19:27.925Z,13.60
2022-09-11T09:22:06.728Z,13.87
2022-09-11T09:24:43.397Z,14.03
2022-09-11T09:27:18.272Z,14.07
2022-09-11T09:29:49.717Z,13.10
2022-09-11T09:32:24.518Z,15.30
2022-09-11T09:34:56.359Z,13.90
2022-09-11T09:37:26.249Z,14.13
2022-09-11T09:39:56.552Z,16.10
2022-09-11T09:42:41.282Z,14.87
2022-09-11T09:45:24.531Z,14.00
2022-09-11T09:47:53.407Z,10.90
2022-09-11T09:50:26.518Z,11.27
2022-09-11T09:52:59.351Z,11.03
2022-09-11T09:55:31.352Z,11.97
2022-09-11T09:57:59.207Z,12.60
2022-09-11T10:00:32.564Z,14.03
2022-09-11T10:03:00.511Z,11.73
2022-09-11T10:05:38.831Z,10.53
2022-09-11T10:08:27.238Z,10.43
2022-09-11T10:11:00.652Z,10.00
2022-09-11T10:13:30.611Z,11.20
2022-09-11T10:16:00.556Z,11.50
2022-09-11T10:18:38.519Z,10.23
2022-09-11T10:21:22.893Z,9.80
2022-09-11T10:23:53.639Z,9.80
2022-09-11T10:26:27.464Z,8.77
2022-09-11T10:28:59.506Z,7.37
2022-09-11T10:31:27.654Z,5.80
2022-09-11T10:33:58.844Z,5.27
2022-09-11T10:36:29.067Z,5.10
2022-09-11T10:38:58.999Z,4.83
2022-09-11T10:41:32.137Z,4.03
2022-09-11T10:44:02.340Z,4.13
2022-09-11T10:46:38.868Z,4.07
2022-09-11T10:49:21.961Z,4.60
2022-09-11T10:52:01.893Z,4.37
2022-09-11T10:54:45.878Z,5.17
2022-09-11T10:57:22.017Z,4.60
2022-09-11T11:00:05.801Z,6.30
2022-09-11T11:02:35.846Z,6.37
2022-09-11T11:05:08.459Z,6.30
2022-09-11T11:08:00.353Z,7.90
2022-09-11T11:10:39.189Z,7.60
2022-09-11T11:13:25.572Z,7.40
2022-09-11T11:16:02.729Z,6.90
2022-09-11T11:18:43.060Z,6.00
2022-09-11T11:21:19.998Z,6.80
2022-09-11T11:23:59.962Z,7.67
2022-09-11T11:26:40.287Z,7.87
2022-09-11T11:29:39.297Z,6.77
2022-09-11T11:32:37.964Z,8.57
2022-09-11T11:35:18.873Z,8.80
2022-09-11T11:37:50.000Z,8.17
2022-09-11T11:40:25.363Z,8.70
2022-09-11T11:42:58.164Z,9.63
2022-09-11T11:45:32.050Z,10.20
2022-09-11T11:48:05.229Z,10.00
2022-09-11T11:50:40.373Z,8.03
2022-09-11T11:53:13.972Z,7.13
2022-09-11T11:55:49.143Z,9.00
2022-09-11T11:58:24.126Z,10.23
2022-09-11T12:01:01.648Z,7.10
2022-09-11T12:03:37.064Z,7.53
2022-09-11T12:06:07.479Z,6.60
2022-09-11T12:08:43.328Z,7.97
2022-09-11T12:11:14.940Z,7.80
2022-09-11T12:13:46.284Z,7.30
2022-09-11T12:16:20.847Z,6.13
2022-09-11T12:19:07.784Z,7.90
2022-09-11T12:21:39.654Z,8.80
2022-09-11T12:24:15.806Z,8.37
2022-09-11T12:26:43.700Z,8.23
2022-09-11T12:29:43.825Z,8.00
2022-09-11T12:32:48.360Z,5.97
2022-09-11T12:35:24.691Z,8.80
2022-09-11T12:37:58.808Z,10.17
2022-09-11T12:40:34.091Z,8.90
2022-09-11T12:43:46.366Z,9.93
2022-09-11T12:46:53.063Z,7.70
2022-09-11T12:49:24.947Z,9.63
2022-09-11T12:51:55.312Z,10.73
2022-09-11T12:54:27.312Z,9.50
2022-09-11T12:57:06.054Z,10.70
2022-09-11T12:59:37.983Z,11.07
2022-09-11T13:02:21.043Z,10.50
2022-09-11T13:04:50.384Z,9.70
2022-09-11T13:07:28.613Z,10.20
2022-09-11T13:09:58.968Z,11.47
2022-09-11T13:12:50.892Z,10.07
2022-09-11T13:15:40.897Z,8.80
2022-09-11T13:18:29.798Z,7.33
2022-09-11T13:21:13.027Z,9.50
2022-09-11T13:23:42.445Z,10.57
2022-09-11T13:26:16.550Z,8.87
2022-09-11T13:28:47.854Z,11.03
2022-09-11T13:31:19.347Z,11.00
2022-09-11T13:33:52.227Z,10.70
2022-09-11T13:36:25.042Z,9.87
2022-09-11T13:38:56.032Z,10.03
2022-09-11T13:41:28.916Z,10.03
2022-09-11T13:43:59.329Z,10.10
2022-09-11T13:46:28.809Z,10.60
2022-09-11T13:49:00.239Z,10.40
2022-09-11T13:51:31.239Z,9.90
2022-09-11T13:54:09.034Z,10.30
2022-09-11T13:56:45.311Z,9.20
2022-09-11T13:59:38.319Z,10.50
2022-09-11T14:02:08.983Z,9.43
2022-09-11T14:04:43.066Z,10.10
2022-09-11T14:07:21.891Z,8.17
2022-09-11T14:09:54.223Z,8.10
2022-09-11T14:12:23.060Z,7.13
2022-09-11T14:14:54.538Z,9.03
2022-09-11T14:17:23.145Z,8.63
2022-09-11T14:19:52.481Z,7.10
2022-09-11T14:22:27.543Z,7.50
2022-09-11T14:24:57.562Z,7.40
2022-09-11T14:27:37.534Z,8.00
2022-09-11T14:30:28.449Z,6.50
2022-09-11T14:33:18.109Z,5.03
2022-09-11T14:35:47.924Z,6.20
2022-09-11T14:38:20.202Z,6.13
2022-09-11T14:40:56.218Z,5.87
2022-09-11T14:43:30.953Z,5.70
2022-09-11T14:45:59.471Z,5.90
2022-09-11T14:48:28.646Z,4.90
2022-09-11T14:50:56.872Z,6.10
2022-09-11T14:53:29.799Z,4.90
2022-09-11T14:55:59.343Z,5.33
2022-09-11T14:58:28.289Z,5.03
2022-09-11T15:00:57.102Z,5.40
2022-09-11T15:03:25.801Z,4.50
2022-09-11T15:05:57.035Z,4.20
2022-09-11T15:08:27.128Z,4.90
2022-09-11T15:10:55.160Z,4.17
2022-09-11T15:13:23.221Z,4.40
2022-09-11T15:15:53.209Z,4.33
2022-09-11T15:18:21.425Z,4.20
2022-09-11T15:20:49.336Z,3.73
2022-09-11T15:23:17.456Z,3.30
2022-09-11T15:25:46.692Z,3.87
2022-09-11T15:28:14.672Z,4.13
2022-09-11T15:30:43.795Z,3.20
2022-09-11T15:33:11.861Z,3.10
2022-09-11T15:35:39.826Z,3.10
2022-09-11T15:38:07.893Z,2.77
2022-09-11T15:40:36.816Z,3.00
2022-09-11T15:43:06.048Z,3.77
2022-09-11T15:45:34.309Z,4.00
2022-09-11T15:48:02.786Z,3.60
2022-09-11T15:50:30.893Z,3.07
2022-09-11T15:52:58.827Z,3.30
2022-09-11T15:55:29.485Z,2.67
2022-09-11T15:57:58.062Z,3.00
2022-09-11T16:00:27.641Z,2.80
2022-09-11T16:02:56.246Z,2.97
2022-09-11T16:05:24.185Z,2.50
2022-09-11T16:07:52.115Z,2.30
2022-09-11T16:10:20.970Z,2.93
2022-09-11T16:12:49.102Z,4.50
2022-09-11T16:15:17.254Z,3.10
2022-09-11T16:17:46.465Z,3.50
2022-09-11T16:20:18.023Z,3.70
2022-09-11T16:22:46.165Z,3.97
2022-09-11T16:25:14.081Z,3.50
2022-09-11T16:27:44.320Z,3.67
2022-09-11T16:33:02.282Z,4.73
2022-09-11T16:35:32.022Z,3.60
2022-09-11T16:38:00.777Z,3.77
2022-09-11T16:40:28.773Z,4.07
2022-09-11T16:42:56.664Z,4.70
2022-09-11T16:45:25.351Z,4.63
2022-09-11T16:47:53.299Z,4.10
2022-09-11T16:50:24.270Z,4.63
2022-09-11T16:52:52.416Z,4.37
2022-09-11T16:55:20.482Z,4.53
2022-09-11T16:57:49.114Z,4.47
2022-09-11T17:00:20.029Z,4.83
2022-09-11T17:02:47.940Z,4.73
2022-09-11T17:05:18.073Z,4.27
2022-09-11T17:07:47.429Z,4.43
2022-09-11T17:10:15.423Z,5.50
2022-09-11T17:12:43.290Z,5.73
2022-09-11T17:15:11.869Z,6.30
2022-09-11T17:17:41.098Z,6.03
2022-09-11T17:20:11.710Z,6.40
2022-09-11T17:22:40.277Z,6.67
2022-09-11T17:25:11.399Z,6.83
2022-09-11T17:27:39.460Z,6.83
2022-09-11T17:30:08.317Z,6.90
2022-09-11T17:32:37.952Z,6.80
2022-09-11T17:35:06.494Z,6.20
2022-09-11T17:37:34.375Z,6.23
2022-09-11T17:40:02.494Z,6.27
2022-09-11T17:42:32.360Z,6.20
2022-09-11T17:45:01.376Z,5.33
2022-09-11T17:47:32.818Z,6.20
2022-09-11T17:50:01.606Z,6.00
2022-09-11T17:52:29.939Z,7.73
2022-09-11T17:54:57.881Z,7.23
2022-09-11T17:57:26.401Z,7.80
2022-09-11T17:59:56.568Z,7.80
2022-09-11T18:02:24.455Z,7.40
2022-09-11T18:04:52.405Z,6.13
2022-09-11T18:07:20.440Z,6.23
2022-09-11T18:09:49.571Z,6.60
2022-09-11T18:12:19.004Z,7.03
2022-09-11T18:14:47.099Z,6.27
2022-09-11T18:17:16.342Z,6.73
2022-09-11T18:19:44.244Z,7.03
2022-09-11T18:22:12.174Z,7.40
2022-09-11T18:24:40.356Z,6.70
2022-09-11T18:27:09.803Z,6.50
2022-09-11T18:29:39.942Z,6.90
2022-09-11T18:32:10.122Z,6.10
2022-09-11T18:34:39.906Z,6.90
2022-09-11T18:37:08.611Z,6.20
2022-09-11T18:39:38.292Z,5.07
2022-09-11T18:42:07.465Z,6.10
2022-09-11T18:44:35.457Z,6.90
2022-09-11T18:47:03.390Z,6.50
2022-09-11T18:49:31.360Z,7.40
2022-09-11T18:52:00.664Z,7.30
2022-09-11T18:54:29.930Z,7.97
2022-09-11T18:56:57.923Z,6.23
2022-09-11T18:59:25.899Z,6.97
2022-09-11T19:01:53.899Z,5.90
2022-09-11T19:04:21.882Z,6.50
2022-09-11T19:06:49.821Z,6.73
2022-09-11T19:09:19.433Z,6.00
2022-09-11T19:11:47.384Z,4.67
2022-09-11T19:14:15.261Z,6.10
2022-09-11T19:16:43.591Z,6.27
2022-09-11T19:19:11.692Z,5.83
2022-09-11T19:21:39.857Z,6.47
2022-09-11T19:24:08.514Z,5.90
2022-09-11T19:26:39.731Z,6.60
2022-09-11T19:29:09.061Z,6.23
2022-09-11T19:31:39.329Z,9.50
2022-09-11T19:34:08.416Z,8.27
2022-09-11T19:36:37.103Z,9.67
2022-09-11T19:39:05.943Z,9.07
2022-09-11T19:41:37.221Z,9.13
2022-09-11T19:44:09.266Z,8.40
2022-09-11T19:46:38.085Z,7.40
2022-09-11T19:49:07.134Z,7.90
2022-09-11T19:51:36.580Z,8.37
2022-09-11T19:54:05.858Z,7.23
2022-09-11T19:56:35.844Z,5.80
2022-09-11T19:59:04.478Z,5.17
2022-09-11T20:01:34.301Z,5.80
2022-09-11T20:04:02.371Z,5.53
2022-09-11T20:06:32.293Z,5.87
2022-09-11T20:09:29.836Z,5.80
2022-09-11T20:11:49.332Z,7.17
2022-09-11T20:14:17.453Z,7.47
2022-09-11T20:16:48.698Z,7.13
2022-09-11T20:19:17.315Z,7.10
2022-09-11T20:21:45.323Z,6.17
2022-09-11T20:24:14.870Z,5.97
2022-09-11T20:26:42.987Z,6.70
2022-09-11T20:29:14.683Z,6.50
2022-09-11T20:31:48.913Z,6.50
2022-09-11T20:34:19.140Z,4.80
2022-09-11T20:36:48.059Z,5.43
2022-09-11T20:39:20.021Z,4.93
2022-09-11T20:41:47.940Z,5.03
2022-09-11T20:44:15.887Z,5.23
2022-09-11T20:46:47.326Z,4.80
2022-09-11T20:49:15.392Z,4.30
2022-09-11T20:51:44.995Z,5.17
2022-09-11T20:54:12.841Z,4.20
2022-09-11T20:56:40.759Z,5.10
2022-09-11T20:59:08.679Z,5.67
2022-09-11T21:01:36.915Z,5.47
2022-09-11T21:04:05.596Z,5.00
2022-09-11T21:06:35.753Z,5.77
2022-09-11T21:09:07.543Z,5.67
2022-09-11T21:11:36.384Z,5.60
2022-09-11T21:14:04.455Z,5.20
2022-09-11T21:16:32.661Z,6.63
2022-09-11T21:19:02.010Z,6.47
2022-09-11T21:21:30.474Z,6.80
2022-09-11T21:23:59.752Z,5.80
2022-09-11T21:26:30.257Z,6.70
2022-09-11T21:28:59.401Z,6.67
2022-09-11T21:31:27.825Z,6.30
2022-09-11T21:33:56.035Z,8.10
2022-09-11T21:36:24.440Z,8.03
2022-09-11T21:38:52.469Z,7.97
2022-09-11T21:41:20.538Z,7.20
2022-09-11T21:43:49.717Z,7.20
2022-09-11T21:46:17.879Z,7.50
2022-09-11T21:48:45.757Z,6.83
2022-09-11T21:51:15.294Z,7.40
2022-09-11T21:53:45.376Z,7.20
2022-09-11T21:56:19.777Z,7.43
2022-09-11T21:58:51.091Z,7.53
2022-09-11T22:01:20.852Z,7.73
2022-09-11T22:03:48.948Z,7.97
2022-09-11T22:06:17.153Z,6.70
2022-09-11T22:08:47.140Z,7.20
2022-09-11T22:11:16.722Z,6.33
2022-09-11T22:13:45.187Z,5.70
2022-09-11T22:16:16.535Z,8.00
2022-09-11T22:18:47.668Z,7.60
2022-09-11T22:21:17.754Z,7.23
2022-09-11T22:23:45.915Z,6.60
2022-09-11T22:26:16.290Z,6.93
2022-09-11T22:28:44.545Z,6.50
2022-09-11T22:31:16.141Z,7.57
2022-09-11T22:33:44.846Z,5.70
2022-09-11T22:36:15.535Z,7.43
2022-09-11T22:38:43.879Z,6.60
2022-09-11T22:41:11.966Z,7.00
2022-09-11T22:43:40.230Z,6.80
2022-09-11T22:46:08.706Z,7.40
2022-09-11T22:48:38.333Z,6.90
2022-09-11T22:51:06.413Z,6.20
2022-09-11T22:53:34.377Z,6.93
2022-09-11T22:56:02.835Z,6.70
2022-09-11T22:58:31.552Z,6.90
2022-09-11T23:01:02.463Z,5.80
2022-09-11T23:03:30.862Z,6.10
2022-09-11T23:06:19.122Z,6.90
2022-09-11T23:08:47.801Z,7.20
2022-09-11T23:11:17.811Z,5.63
2022-09-11T23:13:47.691Z,6.03
2022-09-11T23:16:17.301Z,5.63
2022-09-11T23:18:45.929Z,5.73
2022-09-11T23:21:15.561Z,5.27
2022-09-11T23:23:44.846Z,6.60
2022-09-11T23:26:14.359Z,5.53
2022-09-11T23:28:42.701Z,5.30
2022-09-11T23:31:14.472Z,4.70
2022-09-11T23:33:42.772Z,5.53
2022-09-11T23:36:12.457Z,5.00
2022-09-11T23:38:44.300Z,4.30
2022-09-11T23:41:12.531Z,4.90
2022-09-11T23:43:40.414Z,4.20
2022-09-11T23:46:08.534Z,4.30
2022-09-11T23:48:36.429Z,4.27
2022-09-11T23:51:04.526Z,4.50
2022-09-11T23:53:32.869Z,4.73
2022-09-11T23:56:02.373Z,4.77
2022-09-11T23:58:30.342Z,4.73
